Time;durP1;ratioP1;P1;durP2;ratioP2;P2;SDS_P1;SDS_P2;PMS_P1;PMS_P2;Temp;Humidity;BMP_temperature;BMP_pressure;BME280_temperature;BME280_humidity;BME280_pressure;Samples;Min_cycle;Max_cycle;Signal;HPM_P1;HPM_P2
2022/12/20 05:06:39;;;;;;;4.72;1.90;;;12.40;71.50;;;;;;5281103;23;20065;-77
2022/12/20 05:09:05;;;;;;;6.35;2.22;;;12.40;71.50;;;;;;4916924;29;20076;-78
2022/12/20 05:11:30;;;;;;;5.30;2.13;;;12.40;71.40;;;;;;4936013;29;20126;-77
2022/12/20 05:13:56;;;;;;;5.22;1.98;;;12.40;71.30;;;;;;4919650;29;20048;-79
2022/12/20 05:16:22;;;;;;;3.53;1.60;;;12.40;71.20;;;;;;4918746;29;20060;-77
2022/12/20 05:18:47;;;;;;;5.35;1.75;;;12.50;71.10;;;;;;4901139;29;20048;-79
2022/12/20 05:26:42;;;;;;;5.50;1.20;;;12.90;71.10;;;;;;4918285;29;20048;-75
2022/12/20 05:29:08;;;;;;;4.30;1.38;;;13.10;70.90;;;;;;4920721;29;20040;-77
2022/12/20 05:31:34;;;;;;;6.22;1.50;;;13.30;70.60;;;;;;4905104;29;20348;-76
2022/12/20 05:34:00;;;;;;;5.78;1.50;;;13.50;70.50;;;;;;4921380;29;20094;-76
2022/12/20 05:36:26;;;;;;;10.70;2.05;;;13.70;70.30;;;;;;4922360;29;20124;-79
2022/12/20 05:38:51;;;;;;;6.57;1.33;;;13.80;70.10;;;;;;4922462;29;20430;-77
2022/12/20 05:41:17;;;;;;;9.02;1.80;;;13.90;70.00;;;;;;4922094;29;20036;-78
2022/12/20 05:43:43;;;;;;;6.07;1.67;;;14.10;70.00;;;;;;4922059;29;20193;-77
2022/12/20 05:46:12;;;;;;;8.73;2.08;;;14.20;69.90;;;;;;4905803;29;20470;-80
2022/12/20 05:48:37;;;;;;;6.03;1.63;;;14.30;69.70;;;;;;4922214;29;20039;-76
2022/12/20 05:51:03;;;;;;;10.32;1.48;;;14.30;69.90;;;;;;4921720;29;20115;-76
2022/12/20 05:53:29;;;;;;;8.52;1.77;;;14.40;69.80;;;;;;4921846;29;20044;-77
2022/12/20 05:55:55;;;;;;;9.10;1.73;;;14.40;69.80;;;;;;4921823;29;20048;-78
2022/12/20 05:58:21;;;;;;;16.73;2.10;;;14.50;69.80;;;;;;4921921;29;20113;-78
2022/12/20 06:00:47;;;;;;;11.15;1.70;;;14.60;69.70;;;;;;4922186;29;20052;-78
2022/12/20 06:03:14;;;;;;;12.35;1.88;;;14.60;69.50;;;;;;4921499;29;20063;-78
2022/12/20 06:05:40;;;;;;;6.57;1.42;;;14.70;69.50;;;;;;4905286;29;20079;-78
2022/12/20 06:08:06;;;;;;;10.35;2.05;;;14.80;69.20;;;;;;4901800;29;20071;-75
2022/12/20 06:10:33;;;;;;;11.52;2.28;;;14.90;69.10;;;;;;4901639;29;20054;-77
2022/12/20 06:13:01;;;;;;;6.95;1.38;;;14.80;69.00;;;;;;4901823;29;20048;-78
2022/12/20 06:15:27;;;;;;;12.98;1.90;;;15.00;69.00;;;;;;4902779;29;20079;-77
2022/12/20 06:17:52;;;;;;;9.75;1.77;;;14.90;68.60;;;;;;4902584;29;20437;-78
2022/12/20 06:20:18;;;;;;;11.80;1.75;;;15.10;68.70;;;;;;4902598;29;20055;-79
2022/12/20 06:22:44;;;;;;;8.43;1.45;;;15.10;68.50;;;;;;4902671;29;20112;-77
2022/12/20 06:25:11;;;;;;;9.85;1.73;;;15.30;68.40;;;;;;4886744;29;20080;-78
2022/12/20 06:27:37;;;;;;;8.05;1.60;;;15.40;68.20;;;;;;4902794;29;20045;-77
2022/12/20 06:30:07;;;;;;;7.28;1.60;;;15.50;68.30;;;;;;4901632;29;20131;-80
2022/12/20 06:32:33;;;;;;;6.28;1.33;;;15.50;68.10;;;;;;4901306;29;20112;-78
2022/12/20 06:34:58;;;;;;;8.60;1.38;;;15.60;68.10;;;;;;4902388;29;20396;-80
2022/12/20 06:37:24;;;;;;;5.80;1.50;;;15.60;67.90;;;;;;4902518;29;20124;-82
2022/12/20 06:39:50;;;;;;;8.10;1.20;;;15.60;67.70;;;;;;4901879;29;20052;-78
2022/12/20 06:42:19;;;;;;;6.22;1.30;;;15.70;67.60;;;;;;4869346;29;20057;-75
2022/12/20 06:44:45;;;;;;;9.82;1.40;;;15.70;67.60;;;;;;4883183;29;20119;-75
2022/12/20 06:47:10;;;;;;;7.57;1.70;;;15.70;67.60;;;;;;4882525;29;20044;-83
2022/12/20 06:49:36;;;;;;;6.70;2.00;;;15.70;67.40;;;;;;4882595;29;20401;-81
2022/12/20 06:52:02;;;;;;;7.60;2.15;;;15.70;67.30;;;;;;4880394;29;20048;-81
2022/12/20 06:54:28;;;;;;;10.35;1.92;;;15.80;67.30;;;;;;4900992;29;20047;-83
2022/12/20 06:56:54;;;;;;;9.27;2.00;;;15.70;68.00;;;;;;4885317;29;20424;-83
2022/12/20 06:59:20;;;;;;;10.70;2.63;;;15.70;68.00;;;;;;4900793;29;20040;-84
2022/12/20 07:01:45;;;;;;;14.30;2.83;;;15.80;67.70;;;;;;4900655;29;20040;-85
2022/12/20 07:04:11;;;;;;;10.88;2.35;;;15.90;67.60;;;;;;4900922;29;20052;-79
2022/12/20 07:06:37;;;;;;;10.13;2.90;;;15.90;67.60;;;;;;4885353;29;20047;-80
2022/12/20 07:09:03;;;;;;;13.05;3.10;;;16.00;67.60;;;;;;4900882;29;20056;-82
2022/12/20 07:11:29;;;;;;;14.10;3.00;;;16.10;67.50;;;;;;4884610;29;20080;-79
2022/12/20 07:13:58;;;;;;;13.75;3.80;;;16.10;67.50;;;;;;4885202;29;20048;-80
2022/12/20 07:16:24;;;;;;;10.70;3.28;;;16.10;67.30;;;;;;4901737;29;20063;-80
2022/12/20 07:18:51;;;;;;;16.20;3.83;;;16.10;67.10;;;;;;4861289;29;20445;-80
2022/12/20 07:21:18;;;;;;;8.48;2.63;;;16.20;67.10;;;;;;4883111;29;20360;-81
2022/12/20 07:23:45;;;;;;;13.45;3.10;;;16.10;67.00;;;;;;4895358;29;20048;-77
2022/12/20 07:26:12;;;;;;;11.25;3.28;;;16.00;67.00;;;;;;4914683;29;20430;-80
2022/12/20 07:28:37;;;;;;;15.50;3.88;;;16.00;67.00;;;;;;4906997;29;20112;-79
2022/12/20 07:31:06;;;;;;;17.10;3.58;;;15.90;67.10;;;;;;4899850;29;20049;-83
2022/12/20 07:33:32;;;;;;;12.68;3.47;;;15.90;67.30;;;;;;4898234;29;20479;-78
2022/12/20 07:36:11;;;;;;;12.35;2.97;;;15.80;67.40;;;;;;4884273;29;20041;-79
2022/12/20 07:38:38;;;;;;;15.23;3.40;;;15.70;67.30;;;;;;4882590;29;20045;-79
2022/12/20 07:41:12;;;;;;;12.15;3.22;;;15.70;67.40;;;;;;4883909;29;20452;-81
2022/12/20 07:43:38;;;;;;;13.32;3.47;;;15.60;67.50;;;;;;4884544;29;20452;-81
2022/12/20 07:46:05;;;;;;;12.13;3.40;;;15.60;67.80;;;;;;4900217;29;20060;-82
2022/12/20 07:48:31;;;;;;;11.93;3.15;;;15.60;68.00;;;;;;4869022;29;20040;-80
2022/12/20 07:51:25;;;;;;;15.25;3.10;;;15.50;68.10;;;;;;4884656;29;20044;-81
2022/12/20 07:53:53;;;;;;;;;;;15.40;68.10;;;;;;4867940;29;20052;-80
2022/12/20 07:56:21;;;;;;;12.13;3.30;;;15.30;68.40;;;;;;4905899;29;20262;-79
2022/12/20 07:58:49;;;;;;;10.20;3.08;;;15.30;68.60;;;;;;4874784;29;20043;-82
2022/12/20 08:01:15;;;;;;;12.07;3.40;;;15.30;68.90;;;;;;4891152;29;20116;-78
2022/12/20 08:03:50;;;;;;;7.07;2.38;;;15.20;69.10;;;;;;4892316;29;20124;-79
2022/12/20 08:06:17;;;;;;;10.63;2.75;;;15.20;68.60;;;;;;4892476;29;20084;-82
2022/12/20 08:08:48;;;;;;;8.80;2.65;;;15.20;68.40;;;;;;4890893;29;20087;-79
2022/12/20 08:11:14;;;;;;;5.68;2.03;;;15.00;68.30;;;;;;4899610;29;20123;-81
2022/12/20 08:13:40;;;;;;;8.25;2.38;;;15.00;68.70;;;;;;4873754;29;20498;-80
2022/12/20 08:16:07;;;;;;;6.35;2.17;;;14.90;69.00;;;;;;4906303;29;20044;-79
2022/12/20 08:18:33;;;;;;;10.35;2.83;;;14.80;69.30;;;;;;4891818;29;20351;-79
2022/12/20 08:20:59;;;;;;;9.23;2.50;;;14.70;69.50;;;;;;4873395;29;20128;-78
2022/12/20 08:23:25;;;;;;;9.23;2.47;;;14.70;69.70;;;;;;4904982;29;20068;-81
2022/12/20 08:25:51;;;;;;;9.27;3.00;;;14.60;69.90;;;;;;4907967;29;20455;-77
2022/12/20 08:28:17;;;;;;;13.68;2.70;;;14.60;70.20;;;;;;4890083;29;20048;-78
2022/12/20 08:30:43;;;;;;;5.43;2.22;;;14.60;70.40;;;;;;4908310;29;20584;-82
2022/12/20 08:33:09;;;;;;;7.10;2.30;;;14.50;70.20;;;;;;4872791;29;20052;-79
2022/12/20 08:35:34;;;;;;;4.93;2.53;;;14.50;70.20;;;;;;4882472;29;20052;-79
2022/12/20 08:38:00;;;;;;;8.13;2.35;;;14.50;70.30;;;;;;4868020;29;20075;-79
2022/12/20 08:40:26;;;;;;;13.02;1.95;;;14.50;70.30;;;;;;4884170;29;20067;-81
2022/12/20 08:42:52;;;;;;;8.52;1.90;;;14.50;70.30;;;;;;4868170;29;20040;-81
2022/12/20 08:45:18;;;;;;;6.22;2.17;;;14.50;70.50;;;;;;4900073;29;20048;-77
2022/12/20 08:47:50;;;;;;;7.63;1.70;;;14.50;70.50;;;;;;4868187;29;20375;-78
2022/12/20 08:50:16;;;;;;;13.18;2.22;;;14.50;70.60;;;;;;4883637;29;20060;-80
2022/12/20 08:52:41;;;;;;;7.15;2.40;;;14.50;70.60;;;;;;4900063;29;20103;-79
2022/12/20 08:55:07;;;;;;;5.03;1.70;;;14.50;70.50;;;;;;4899826;29;20464;-81
2022/12/20 08:57:34;;;;;;;7.82;1.80;;;14.50;70.50;;;;;;4905382;29;20462;-80
2022/12/20 08:59:59;;;;;;;6.60;1.38;;;14.50;70.30;;;;;;4919262;29;20048;-81
2022/12/20 09:02:25;;;;;;;6.57;1.13;;;14.50;70.10;;;;;;4891082;29;20058;-80
2022/12/20 09:04:55;;;;;;;5.45;1.83;;;14.50;70.00;;;;;;4896967;29;20423;-81
2022/12/20 09:07:21;;;;;;;8.07;1.67;;;14.50;69.80;;;;;;4887287;29;20120;-82
2022/12/20 09:09:47;;;;;;;8.52;2.10;;;14.50;69.60;;;;;;4885287;29;20053;-82
2022/12/20 09:12:12;;;;;;;4.32;1.02;;;14.60;69.50;;;;;;4900314;29;20055;-79
2022/12/20 09:14:38;;;;;;;7.00;1.40;;;14.70;69.40;;;;;;4899255;29;20081;-79
2022/12/20 09:17:05;;;;;;;10.15;1.15;;;14.90;69.10;;;;;;4899372;29;20056;-81
2022/12/20 09:19:31;;;;;;;11.73;1.70;;;15.00;68.70;;;;;;4883416;29;20099;-81
2022/12/20 09:21:56;;;;;;;8.07;1.38;;;15.20;68.40;;;;;;4882286;29;20080;-81
2022/12/20 09:24:22;;;;;;;2.55;1.00;;;15.30;68.20;;;;;;4883047;29;20056;-81
2022/12/20 09:26:48;;;;;;;4.10;0.90;;;15.40;67.90;;;;;;4883132;29;20103;-80
2022/12/20 09:29:14;;;;;;;8.40;1.17;;;15.40;67.70;;;;;;4883416;29;20065;-80
2022/12/20 09:31:40;;;;;;;7.93;1.27;;;15.40;67.60;;;;;;4883572;29;20084;-82
2022/12/20 09:34:05;;;;;;;4.38;1.00;;;15.50;67.60;;;;;;4899506;29;20053;-82
2022/12/20 09:36:31;;;;;;;3.40;0.93;;;15.60;67.50;;;;;;4883708;29;20056;-79
2022/12/20 09:38:57;;;;;;;4.53;0.70;;;15.60;67.30;;;;;;4883416;29;20044;-81
2022/12/20 09:41:42;;;;;;;5.25;0.95;;;15.60;67.20;;;;;;4898738;29;20086;-82
2022/12/20 09:44:28;;;;;;;7.63;0.82;;;15.60;67.30;;;;;;4898338;29;20044;-81
2022/12/20 09:47:15;;;;;;;8.77;1.10;;;15.60;67.40;;;;;;4899050;29;20076;-83
2022/12/20 09:49:44;;;;;;;5.43;0.60;;;15.60;67.50;;;;;;4899640;29;20037;-78
2022/12/20 09:52:22;;;;;;;5.80;0.88;;;15.70;67.50;;;;;;4899152;29;20048;-79
2022/12/20 09:54:48;;;;;;;6.40;0.80;;;15.80;67.50;;;;;;4882772;29;20084;-78
2022/12/20 09:57:19;;;;;;;6.60;0.73;;;15.90;67.30;;;;;;4899011;29;20127;-78
2022/12/20 09:59:45;;;;;;;6.25;0.63;;;16.10;67.20;;;;;;4882619;29;20052;-79
2022/12/20 10:02:14;;;;;;;5.40;0.73;;;16.20;67.10;;;;;;4882965;29;20052;-77
2022/12/20 10:04:40;;;;;;;8.13;0.60;;;16.20;66.80;;;;;;4882679;29;20088;-79
2022/12/20 10:07:15;;;;;;;4.60;0.82;;;16.30;66.80;;;;;;4882667;29;20095;-77
2022/12/20 10:10:13;;;;;;;4.95;0.82;;;16.30;66.80;;;;;;4903102;29;20049;-77
2022/12/20 10:12:57;;;;;;;4.13;1.33;;;16.40;66.80;;;;;;4901871;29;20472;-78
2022/12/20 10:15:39;;;;;;;11.10;1.90;;;16.50;66.60;;;;;;4898706;29;20083;-78
2022/12/20 10:18:45;;;;;;;9.02;1.30;;;16.50;66.50;;;;;;4902600;29;20468;-78
2022/12/20 10:21:33;;;;;;;7.85;1.33;;;16.50;66.50;;;;;;4903010;29;20052;-77
2022/12/20 10:24:09;;;;;;;5.68;1.48;;;16.50;66.60;;;;;;4902291;29;20048;-82
2022/12/20 10:26:34;;;;;;;7.75;1.10;;;16.50;66.60;;;;;;4884503;29;20048;-79
2022/12/20 10:29:00;;;;;;;5.57;1.08;;;16.50;66.40;;;;;;4885014;29;20061;-77
2022/12/20 10:31:26;;;;;;;5.18;1.60;;;16.50;66.30;;;;;;4901987;29;20119;-80
2022/12/20 10:33:56;;;;;;;7.70;1.25;;;16.50;66.40;;;;;;4891866;29;20053;-81
2022/12/20 10:36:28;;;;;;;5.32;1.25;;;16.40;66.40;;;;;;4902345;29;20049;-80
2022/12/20 10:38:56;;;;;;;7.68;1.02;;;16.40;66.60;;;;;;4885561;29;20539;-80
2022/12/20 10:41:50;;;;;;;6.97;1.08;;;16.40;66.60;;;;;;4906215;29;20123;-81
2022/12/20 10:44:24;;;;;;;5.18;1.20;;;16.40;66.70;;;;;;4861835;29;20069;-82
2022/12/20 10:47:00;;;;;;;3.55;0.90;;;16.40;66.90;;;;;;4910013;29;20358;-82
2022/12/20 10:49:29;;;;;;;6.32;0.93;;;16.40;66.60;;;;;;4893516;29;20049;-82
2022/12/20 10:51:58;;;;;;;2.95;0.70;;;16.40;66.50;;;;;;4899025;29;20107;-82
2022/12/20 10:54:36;;;;;;;6.35;1.00;;;16.40;66.50;;;;;;4910394;29;20052;-82
2022/12/20 10:57:19;;;;;;;3.38;0.75;;;16.40;66.60;;;;;;4885425;29;20053;-82
2022/12/20 10:59:52;;;;;;;9.02;1.08;;;16.40;66.50;;;;;;4905309;29;20076;-81
2022/12/20 11:02:29;;;;;;;6.05;1.33;;;16.40;66.50;;;;;;4882220;29;20464;-80
2022/12/20 11:05:00;;;;;;;3.70;0.55;;;16.50;66.50;;;;;;4885412;29;20132;-83
2022/12/20 11:07:32;;;;;;;4.13;0.60;;;16.50;66.40;;;;;;4869766;29;20076;-83
2022/12/20 11:10:00;;;;;;;2.10;0.55;;;16.50;66.40;;;;;;4869939;29;20375;-83
2022/12/20 11:12:26;;;;;;;5.15;0.85;;;16.40;66.30;;;;;;4901791;29;20087;-80
2022/12/20 11:15:18;;;;;;;5.03;1.25;;;16.40;66.30;;;;;;4901480;29;20052;-81
2022/12/20 11:17:50;;;;;;;8.25;1.02;;;16.50;66.30;;;;;;4884928;29;20135;-84
2022/12/20 11:20:31;;;;;;;7.15;1.10;;;16.50;66.50;;;;;;4900668;29;20045;-79
2022/12/20 11:23:06;;;;;;;8.65;1.35;;;16.50;66.60;;;;;;4901986;29;20053;-78
2022/12/20 11:26:03;;;;;;;12.20;1.05;;;16.40;66.50;;;;;;4882956;29;20048;-83
2022/12/20 11:28:41;;;;;;;8.70;1.10;;;16.40;66.40;;;;;;4893129;29;20132;-79
2022/12/20 11:31:28;;;;;;;5.63;0.82;;;16.40;66.20;;;;;;4873595;29;20046;-83
2022/12/20 11:34:21;;;;;;;6.18;0.82;;;16.50;66.10;;;;;;4865720;29;20456;-81
2022/12/20 11:37:08;;;;;;;10.75;1.40;;;16.50;66.00;;;;;;4899885;29;20044;-84
2022/12/20 11:39:49;;;;;;;5.50;1.15;;;16.50;66.00;;;;;;4862589;29;20048;-82
2022/12/20 11:42:42;;;;;;;4.20;0.85;;;16.50;66.00;;;;;;4873683;29;20037;-81
2022/12/20 11:45:24;;;;;;;4.95;0.80;;;16.50;65.90;;;;;;4878778;29;20124;-81
2022/12/20 11:47:59;;;;;;;3.83;1.02;;;16.50;65.80;;;;;;4875763;29;20376;-82
2022/12/20 11:50:29;;;;;;;5.25;0.75;;;16.50;65.70;;;;;;4893456;29;20131;-81
2022/12/20 11:53:19;;;;;;;3.70;0.90;;;16.50;65.60;;;;;;4876822;29;20493;-84
2022/12/20 11:55:52;;;;;;;7.80;0.85;;;16.50;65.60;;;;;;4875034;29;20433;-83
2022/12/20 11:58:25;;;;;;;5.70;1.17;;;16.50;65.60;;;;;;4903184;29;20405;-80
2022/12/20 12:01:03;;;;;;;5.10;0.90;;;16.50;65.50;;;;;;4875249;29;20059;-80
2022/12/20 12:03:35;;;;;;;4.00;0.70;;;16.50;65.40;;;;;;4877526;29;20407;-82
2022/12/20 12:06:14;;;;;;;4.32;0.80;;;16.60;65.50;;;;;;4857033;29;20076;-80
2022/12/20 12:08:42;;;;;;;4.57;1.00;;;16.50;65.40;;;;;;4878171;29;20060;-80
2022/12/20 12:11:18;;;;;;;5.18;1.20;;;16.30;65.80;;;;;;4905098;29;20096;-81
2022/12/20 12:13:44;;;;;;;5.38;0.60;;;16.30;65.90;;;;;;4895519;29;20117;-81
2022/12/20 12:16:16;;;;;;;5.20;1.00;;;16.30;65.90;;;;;;4875346;29;20058;-83
2022/12/20 12:18:42;;;;;;;2.53;0.88;;;16.10;66.50;;;;;;4891362;29;20056;-77
2022/12/20 12:21:37;;;;;;;7.20;1.05;;;15.90;67.00;;;;;;4888816;29;20124;-82
2022/12/20 12:24:13;;;;;;;2.70;0.60;;;15.80;67.50;;;;;;4891263;29;20052;-77
2022/12/20 12:26:39;;;;;;;3.90;0.50;;;15.70;67.70;;;;;;4890743;29;20408;-77
2022/12/20 12:29:16;;;;;;;2.47;0.40;;;15.50;68.00;;;;;;4891504;29;20044;-80
2022/12/20 12:32:06;;;;;;;3.83;0.80;;;15.50;68.30;;;;;;4891034;29;20053;-82
2022/12/20 12:35:02;;;;;;;6.85;1.05;;;15.60;68.00;;;;;;4893265;29;20159;-78
2022/12/20 12:37:48;;;;;;;4.45;0.70;;;15.60;67.80;;;;;;4891464;29;20111;-81
2022/12/20 12:40:26;;;;;;;3.97;1.02;;;15.60;67.80;;;;;;4890149;29;20056;-78
2022/12/20 12:43:28;;;;;;;6.35;1.23;;;15.60;67.60;;;;;;4887442;29;20124;-76
2022/12/20 12:45:59;;;;;;;5.57;0.93;;;15.70;68.10;;;;;;4890920;29;20055;-78
2022/12/20 12:48:38;;;;;;;4.13;1.00;;;15.70;67.90;;;;;;4889136;29;20353;-78
2022/12/20 12:51:05;;;;;;;3.50;0.50;;;15.70;68.70;;;;;;4889368;29;20064;-80
2022/12/20 12:53:49;;;;;;;3.53;0.70;;;15.70;68.10;;;;;;4888892;29;20094;-78
2022/12/20 12:56:26;;;;;;;2.50;0.50;;;15.60;67.80;;;;;;4899544;29;20364;-81
2022/12/20 12:59:05;;;;;;;1.90;0.47;;;15.60;68.10;;;;;;4880107;29;20053;-80
2022/12/20 13:01:54;;;;;;;2.85;0.60;;;15.60;68.10;;;;;;4885607;29;20091;-81
2022/12/20 13:04:22;;;;;;;1.95;0.50;;;15.60;68.30;;;;;;4888475;29;20048;-80
2022/12/20 13:07:01;;;;;;;4.18;0.73;;;15.60;68.40;;;;;;4900124;29;20049;-78
2022/12/20 13:09:27;;;;;;;2.28;0.60;;;15.50;68.50;;;;;;4899012;29;20494;-79
2022/12/20 13:11:55;;;;;;;5.20;0.82;;;15.50;68.50;;;;;;4898819;29;20088;-78
2022/12/20 13:14:23;;;;;;;3.83;0.70;;;15.50;68.50;;;;;;4879456;29;20057;-77
2022/12/20 13:17:13;;;;;;;2.10;0.40;;;15.50;68.30;;;;;;4900596;29;20062;-77
2022/12/20 13:19:49;;;;;;;4.82;0.50;;;15.50;68.10;;;;;;4879921;29;20060;-76
2022/12/20 13:22:20;;;;;;;2.10;0.60;;;15.50;68.00;;;;;;4899865;29;20127;-78
2022/12/20 13:25:02;;;;;;;4.32;0.80;;;15.60;67.80;;;;;;4898660;29;20045;-78
2022/12/20 13:27:39;;;;;;;6.90;0.82;;;15.70;67.80;;;;;;4899575;29;20469;-79
2022/12/20 13:30:11;;;;;;;7.55;0.60;;;15.80;67.60;;;;;;4899436;29;20054;-79
2022/12/20 13:32:45;;;;;;;3.45;0.70;;;15.90;67.50;;;;;;4894436;29;20116;-79
2022/12/20 13:35:23;;;;;;;4.20;0.70;;;15.90;67.40;;;;;;4881277;29;20053;-78
2022/12/20 13:38:00;;;;;;;3.00;0.60;;;16.00;67.40;;;;;;4896725;29;20356;-79
2022/12/20 13:40:43;;;;;;;6.65;0.68;;;16.10;67.30;;;;;;4899805;29;20041;-75
2022/12/20 13:43:19;;;;;;;9.27;0.90;;;16.20;67.10;;;;;;4901876;29;20060;-74
2022/12/20 13:45:52;;;;;;;8.73;3.05;;;16.30;66.90;;;;;;4903647;29;20044;-81
2022/12/20 13:48:21;;;;;;;;;;;16.30;67.30;;;;;;4884773;29;20136;-78
2022/12/20 13:50:52;;;;;;;7.72;2.25;;;16.20;66.50;;;;;;4885191;29;19936;-77
2022/12/20 13:53:21;;;;;;;7.38;1.95;;;16.10;66.80;;;;;;4893175;29;20603;-76
2022/12/20 13:55:48;;;;;;;5.88;1.67;;;16.10;66.80;;;;;;4895605;29;20059;-76
2022/12/20 13:58:30;;;;;;;4.07;1.80;;;16.20;66.70;;;;;;4894265;29;20052;-76
2022/12/20 14:01:11;;;;;;;5.68;1.67;;;16.20;66.50;;;;;;4886773;29;20056;-75
2022/12/20 14:03:44;;;;;;;5.53;1.83;;;16.30;66.40;;;;;;4884653;29;20398;-77
2022/12/20 14:06:14;;;;;;;6.40;1.90;;;16.30;66.60;;;;;;4898319;29;20066;-82
2022/12/20 14:08:48;;;;;;;4.25;1.38;;;16.40;66.70;;;;;;4902229;29;20064;-78
2022/12/20 14:11:25;;;;;;;7.25;1.63;;;16.40;66.70;;;;;;4887479;29;20078;-78
2022/12/20 14:14:02;;;;;;;6.97;1.90;;;16.40;66.70;;;;;;4921390;29;20048;-76
2022/12/20 14:16:30;;;;;;;6.70;1.67;;;16.30;66.80;;;;;;4921213;29;20052;-77
2022/12/20 14:19:02;;;;;;;8.45;1.65;;;16.30;66.90;;;;;;4921782;29;20048;-77
2022/12/20 14:21:28;;;;;;;6.70;1.63;;;16.30;67.40;;;;;;4921347;29;20379;-77
2022/12/20 14:23:57;;;;;;;7.90;1.98;;;16.30;67.60;;;;;;4896671;29;20120;-75
2022/12/20 14:26:37;;;;;;;5.70;1.63;;;16.20;67.50;;;;;;4893036;29;20076;-76
2022/12/20 14:29:10;;;;;;;6.78;1.98;;;16.30;67.70;;;;;;4893130;29;20052;-77
2022/12/20 14:31:42;;;;;;;7.30;1.65;;;16.30;67.80;;;;;;4892757;29;20055;-77
2022/12/20 14:34:13;;;;;;;9.07;1.40;;;16.20;67.70;;;;;;4894148;29;20072;-76
2022/12/20 14:36:41;;;;;;;11.82;2.17;;;16.30;68.00;;;;;;4894388;29;20063;-77
2022/12/20 14:39:25;;;;;;;5.53;1.92;;;16.20;68.10;;;;;;4892278;29;20059;-77
2022/12/20 14:42:01;;;;;;;10.02;2.08;;;16.30;68.80;;;;;;4896158;29;20692;-75
2022/12/20 14:44:29;;;;;;;5.78;2.33;;;16.30;68.70;;;;;;4895184;29;20055;-77
2022/12/20 14:46:57;;;;;;;7.80;2.58;;;16.30;68.90;;;;;;4893474;29;20139;-77
2022/12/20 14:49:30;;;;;;;8.02;2.47;;;16.30;68.90;;;;;;4893907;29;20096;-77
2022/12/20 14:52:32;;;;;;;5.95;2.25;;;16.30;69.10;;;;;;4890864;29;20126;-77
2022/12/20 14:55:44;;;;;;;7.82;2.40;;;16.20;69.50;;;;;;4894186;29;20063;-77
2022/12/20 14:58:41;;;;;;;7.05;3.00;;;16.20;69.70;;;;;;4860754;29;20125;-77
2022/12/20 15:01:25;;;;;;;8.77;2.53;;;16.30;69.90;;;;;;4827937;29;20053;-77
2022/12/20 15:03:57;;;;;;;6.88;1.95;;;16.30;69.90;;;;;;4885330;29;20060;-77
2022/12/20 15:06:41;;;;;;;6.63;2.00;;;16.30;69.80;;;;;;4895775;29;20097;-77
2022/12/20 15:09:07;;;;;;;8.38;2.10;;;16.30;69.70;;;;;;4909959;29;20135;-77
2022/12/20 15:11:35;;;;;;;5.80;1.98;;;16.30;69.60;;;;;;4910420;29;20119;-76
2022/12/20 15:14:03;;;;;;;7.32;2.40;;;16.30;69.60;;;;;;4894712;29;20051;-76
2022/12/20 15:16:29;;;;;;;5.38;1.60;;;16.30;69.50;;;;;;4901875;29;20052;-77
2022/12/20 15:19:00;;;;;;;9.70;2.20;;;16.30;69.50;;;;;;4898607;29;20052;-78
2022/12/20 15:21:34;;;;;;;4.93;1.63;;;16.30;69.50;;;;;;4918541;29;20107;-79
2022/12/20 15:24:02;;;;;;;6.20;1.88;;;16.30;69.60;;;;;;4919190;29;20051;-78
2022/12/20 15:26:29;;;;;;;10.77;2.22;;;16.20;69.60;;;;;;4919919;29;20119;-78
2022/12/20 15:28:56;;;;;;;12.68;2.00;;;16.20;69.70;;;;;;4919839;29;20048;-76
2022/12/20 15:31:23;;;;;;;15.30;2.15;;;16.10;69.70;;;;;;4895323;29;20434;-76
2022/12/20 15:33:50;;;;;;;7.07;2.42;;;16.10;69.20;;;;;;4913002;29;20072;-77
2022/12/20 15:36:25;;;;;;;9.50;3.03;;;16.10;69.50;;;;;;4914318;29;20185;-77
2022/12/20 15:38:51;;;;;;;16.85;4.40;;;16.10;69.40;;;;;;4913609;29;20110;-73
2022/12/20 15:41:25;;;;;;;6.68;3.67;;;16.10;69.00;;;;;;4916678;29;20039;-72
2022/12/20 15:43:56;;;;;;;10.55;3.63;;;16.10;68.00;;;;;;4913442;29;20067;-73
2022/12/20 15:46:23;;;;;;;8.70;3.03;;;16.00;67.60;;;;;;4915212;29;20044;-73
2022/12/20 15:48:48;;;;;;;8.07;2.90;;;16.00;67.40;;;;;;4892503;29;20045;-73
2022/12/20 15:51:26;;;;;;;8.35;2.75;;;16.10;67.20;;;;;;4915154;29;20056;-73
2022/12/20 15:53:51;;;;;;;7.10;2.40;;;16.10;67.00;;;;;;4908826;29;20055;-73
2022/12/20 15:56:23;;;;;;;7.53;2.60;;;16.10;66.90;;;;;;4913814;29;20040;-73
2022/12/20 15:58:49;;;;;;;6.00;3.00;;;16.10;66.40;;;;;;4913879;29;20119;-73
2022/12/20 16:01:19;;;;;;;8.02;2.58;;;16.20;66.90;;;;;;4913044;29;20584;-73
2022/12/20 16:03:51;;;;;;;7.18;2.95;;;16.20;67.00;;;;;;4910521;29;20055;-79
2022/12/20 16:06:17;;;;;;;4.40;1.95;;;16.20;67.00;;;;;;4911018;29;20051;-76
2022/12/20 16:08:44;;;;;;;5.18;1.90;;;16.20;67.00;;;;;;4916302;29;20379;-75
2022/12/20 16:11:26;;;;;;;14.10;2.63;;;16.20;67.20;;;;;;4902633;29;20191;-77
2022/12/20 16:13:53;;;;;;;15.82;3.28;;;16.20;67.30;;;;;;4919585;29;20451;-76
2022/12/20 16:16:31;;;;;;;12.82;2.85;;;16.20;67.60;;;;;;4919519;29;20047;-77
2022/12/20 16:18:57;;;;;;;15.68;3.42;;;16.30;67.90;;;;;;4910599;29;20067;-77
2022/12/20 16:21:25;;;;;;;17.85;3.40;;;16.30;68.10;;;;;;4919899;29;20359;-78
2022/12/20 16:23:53;;;;;;;18.92;3.58;;;16.30;68.30;;;;;;4919442;29;20443;-77
2022/12/20 16:26:23;;;;;;;27.13;3.85;;;16.30;68.40;;;;;;4919235;29;20036;-77
2022/12/20 16:28:51;;;;;;;21.08;3.67;;;16.30;68.60;;;;;;4919662;29;20040;-77
2022/12/20 16:31:17;;;;;;;12.02;3.42;;;16.20;68.60;;;;;;4919075;29;20419;-76
2022/12/20 16:33:43;;;;;;;16.02;4.18;;;16.30;68.90;;;;;;4918921;29;20044;-77
2022/12/20 16:36:10;;;;;;;13.88;2.65;;;16.20;68.90;;;;;;4919303;29;20040;-76
2022/12/20 16:38:36;;;;;;;12.00;2.50;;;16.20;69.20;;;;;;4927586;29;20360;-77
2022/12/20 16:41:14;;;;;;;11.52;2.80;;;16.20;69.20;;;;;;4884026;29;20187;-76
2022/12/20 16:43:41;;;;;;;19.45;3.40;;;16.20;69.40;;;;;;4909421;29;20067;-79
2022/12/20 16:46:18;;;;;;;15.90;2.80;;;16.20;69.30;;;;;;4937486;29;20047;-76
2022/12/20 16:48:44;;;;;;;10.98;2.60;;;16.20;69.70;;;;;;4928262;29;20124;-76
2022/12/20 16:51:30;;;;;;;13.18;3.72;;;16.20;69.40;;;;;;4927920;29;20135;-76
2022/12/20 16:54:02;;;;;;;11.15;3.20;;;16.20;69.40;;;;;;4918869;29;20063;-76
2022/12/20 16:56:29;;;;;;;12.30;2.95;;;16.20;69.30;;;;;;4918838;29;20123;-75
2022/12/20 16:58:56;;;;;;;15.48;3.47;;;16.20;69.30;;;;;;4908166;29;20048;-76
2022/12/20 17:01:50;;;;;;;11.27;2.75;;;16.20;69.40;;;;;;4907998;29;20440;-78
2022/12/20 17:04:21;;;;;;;13.00;2.60;;;16.10;67.70;;;;;;4912416;29;20067;-76
2022/12/20 17:06:54;;;;;;;12.80;3.17;;;16.00;67.90;;;;;;4886789;29;20039;-77
2022/12/20 17:09:20;;;;;;;19.70;3.50;;;15.90;68.70;;;;;;4911934;29;20040;-79
2022/12/20 17:11:46;;;;;;;21.30;4.20;;;15.90;69.10;;;;;;4918577;29;20050;-75
2022/12/20 17:14:12;;;;;;;14.65;3.25;;;15.90;69.20;;;;;;4919203;29;20477;-78
2022/12/20 17:16:39;;;;;;;18.27;3.50;;;15.90;69.10;;;;;;4918541;29;20052;-77
2022/12/20 17:19:05;;;;;;;16.10;3.13;;;16.00;69.20;;;;;;4901687;29;20048;-78
2022/12/20 17:21:36;;;;;;;25.95;3.92;;;16.00;69.20;;;;;;4915705;29;20435;-76
2022/12/20 17:24:05;;;;;;;15.52;3.55;;;16.10;69.40;;;;;;4918699;29;20059;-78
2022/12/20 17:26:32;;;;;;;19.20;3.65;;;16.10;69.30;;;;;;4901926;29;20060;-77
2022/12/20 17:28:59;;;;;;;15.80;3.05;;;16.10;69.40;;;;;;4918949;29;20044;-78
2022/12/20 17:31:39;;;;;;;31.95;4.25;;;16.10;69.20;;;;;;4917779;29;20072;-74
2022/12/20 17:34:26;;;;;;;13.15;2.85;;;16.20;69.30;;;;;;4918660;29;20048;-75
2022/12/20 17:36:54;;;;;;;14.48;3.15;;;16.10;68.90;;;;;;4919327;29;20087;-75
2022/12/20 17:39:22;;;;;;;13.82;3.10;;;16.10;68.90;;;;;;4918722;29;20056;-75
2022/12/20 17:41:51;;;;;;;8.18;2.28;;;16.10;68.80;;;;;;4918371;29;20055;-76
2022/12/20 17:44:20;;;;;;;11.63;3.35;;;16.10;68.70;;;;;;4918429;29;20056;-75
2022/12/20 17:46:46;;;;;;;13.98;3.70;;;16.00;68.50;;;;;;4918874;29;20056;-75
2022/12/20 17:49:12;;;;;;;9.38;2.70;;;16.00;68.50;;;;;;4902038;29;20459;-75
2022/12/20 17:51:38;;;;;;;11.60;2.72;;;16.00;68.40;;;;;;4918253;29;20083;-75
2022/12/20 17:54:04;;;;;;;7.82;2.75;;;16.00;68.40;;;;;;4918393;29;20420;-75
2022/12/20 17:56:32;;;;;;;9.45;3.13;;;16.00;68.30;;;;;;4918324;29;20048;-74
2022/12/20 17:58:59;;;;;;;10.57;2.30;;;15.90;68.20;;;;;;4918476;29;20081;-76
2022/12/20 18:01:31;;;;;;;12.93;2.88;;;15.90;68.20;;;;;;4918671;29;20048;-74
2022/12/20 18:04:01;;;;;;;12.88;3.20;;;15.90;68.20;;;;;;4901899;29;20063;-74
2022/12/20 18:06:30;;;;;;;6.72;2.95;;;15.80;68.10;;;;;;4918575;29;20475;-75
2022/12/20 18:08:56;;;;;;;7.55;2.85;;;15.80;68.00;;;;;;4918133;29;20547;-74
2022/12/20 18:11:24;;;;;;;8.15;2.97;;;15.80;68.00;;;;;;4918205;29;20127;-74
2022/12/20 18:13:52;;;;;;;10.70;3.30;;;15.80;68.00;;;;;;4901965;29;20056;-76
2022/12/20 18:16:21;;;;;;;13.60;3.63;;;15.80;67.90;;;;;;4918357;29;20119;-75